RJAARJSF

Guest
Details From RJAA - NARITA INTL
To RJSF - Fukushima
Flight Number -
Tags generated
Created
Modified
Stats Distance 87 nm / 162 km
Max Altitude 8,700 ft / 2,652 m
Waypoints 3
Social Downloads 1
Likes 0
Share VATSIM

Download

Looking for another format? Having issues loading an existing format? Contact us
Advertisement - Login to hide

Notes

Basic altitude profile: - Ascent Rate: 2500ft/min - Ascent Speed: 250kts - Cruise Altitude: 35000ft - Cruise Speed: 420kts - Descent Rate: 1500ft/min - Descent Speed: 250kts Options: - Use NATs: yes - Use PACOTS: yes - Use low airways: yes - Use high airways: yes

Route

RJAA MILKY RJSF

ID Type Via Altitude Latitude Longitude Leg Dist Tot Dist Heading (true) Name
O RJAA APT - 0 ft / 0 m 35.77655˚ 140.38277˚ - 0 nm - NARITA INTL
MILKY FIX - 8,700 ft / 2,652 m 36.54578˚ 140.43848˚ 46 nm 46 nm 3° / 3° -
O RJSF APT - 0 ft / 0 m 37.22743˚ 140.42797˚ 40 nm 87 nm 359° / 359° Fukushima

Altitude Profile

Advertisement - Login to hide

RJAA

Details ICAO RJAA (NRT)
Name NARITA INTL
Region Japan
Timezone Asia/Tokyo (UTC+9.0)
Stats Elevation 141 ft / 43 m (AMSL)
Location 35.776552° 140.382770°
Runways 2
Magnetic Variation 7.431° W

METAR

RJAA 221600Z 26001KT 9999 MIFG FEW030 SCT/// 14/13 Q1015 NOSIG RMK 1CU030 A3000

Decode

TAF

TAF RJAA 221105Z 2212/2318 08005KT 8000 FEW020 BKN030 BECMG 2215/2217 04004KT BECMG 2221/2223 12008KT BECMG 2306/2309 4000 -SHRA BR FEW005 BKN008 TEMPO 2309/2318 2000 SHRA BR FEW002 BKN004

Decode

Departure Runways

ID Width Length Bearing (true) Bearing (mag) Surface Threshold Offset Overrun Length
16L 196 ft / 60 m 7,162 ft / 2,183 m 149.61° 157.04° Asphalt 190 ft / 58 m 0 ft / 0 m
16R 196 ft / 60 m 13,142 ft / 4,006 m 149.61° 157.04° Asphalt 0 ft / 0 m 410 ft / 125 m
34L 196 ft / 60 m 13,142 ft / 4,006 m 329.62° 337.05° Asphalt 0 ft / 0 m 415 ft / 126 m
34R 196 ft / 60 m 7,162 ft / 2,183 m 329.62° 337.05° Asphalt 190 ft / 58 m 0 ft / 0 m

RJSF

Details ICAO RJSF (FKS)
Name Fukushima
Region Japan
Timezone Asia/Tokyo (UTC+9.0)
Stats Elevation 1,220 ft / 372 m (AMSL)
Location 37.227429° 140.427974°
Runways 1
Magnetic Variation 7.892° W

METAR

Not found

TAF

TAF RJSF 221105Z 2212/2318 14004KT 9999 FEW030 TEMPO 2309/2312 3000 -RA BR FEW005 BKN008 BKN015 TEMPO 2312/2318 1500 SHRA BR FEW002 BKN005 BKN008 BECMG 2315/2318 01005KT

Decode

Destination Runways

ID Width Length Bearing (true) Bearing (mag) Surface Threshold Offset Overrun Length
01 197 ft / 60 m 8,219 ft / 2,505 m 2.19° 10.08° Asphalt 0 ft / 0 m 197 ft / 60 m
19 197 ft / 60 m 8,219 ft / 2,505 m 182.19° 190.08° Asphalt 0 ft / 0 m 197 ft / 60 m

Approach Navaids

Runway Type Ident Frequency Range Bearing (true) Bearing (mag) Slope Elevation
01 Localiser IFK 110.50 MHz 18 nm / 33 km 2.19° 10.08° - 1,220 ft / 372 m (AMSL)
01 Glidescope IFK 110.50 MHz 10 nm / 19 km 2.19° 10.08° 3.00° 1,220 ft / 372 m (AMSL)
01 DME IFK 110.50 MHz 18 nm / 33 km - - - 1,223 ft / 373 m (AMSL)

Popular Alternatives